sensor_id;sensor_type;location;lat;lon;timestamp;P1;durP1;ratioP1;P2;durP2;ratioP2
64052;SDS011;50299;49.524;8.536;2022-10-29T00:00:50;9.88;;;6.55;;
64052;SDS011;50299;49.524;8.536;2022-10-29T00:03:18;25.52;;;7.90;;
64052;SDS011;50299;49.524;8.536;2022-10-29T00:08:22;15.68;;;6.75;;
64052;SDS011;50299;49.524;8.536;2022-10-29T00:10:48;16.80;;;7.63;;
64052;SDS011;50299;49.524;8.536;2022-10-29T00:13:15;19.80;;;6.53;;
64052;SDS011;50299;49.524;8.536;2022-10-29T00:15:41;16.55;;;6.35;;
64052;SDS011;50299;49.524;8.536;2022-10-29T00:18:07;13.40;;;6.43;;
64052;SDS011;50299;49.524;8.536;2022-10-29T00:20:34;13.45;;;6.70;;
64052;SDS011;50299;49.524;8.536;2022-10-29T00:23:00;19.60;;;6.95;;
64052;SDS011;50299;49.524;8.536;2022-10-29T00:25:27;21.85;;;7.18;;
64052;SDS011;50299;49.524;8.536;2022-10-29T00:27:54;12.93;;;6.88;;
64052;SDS011;50299;49.524;8.536;2022-10-29T00:30:21;14.20;;;6.55;;
64052;SDS011;50299;49.524;8.536;2022-10-29T00:32:47;16.58;;;7.50;;
64052;SDS011;50299;49.524;8.536;2022-10-29T00:35:14;12.10;;;6.57;;
64052;SDS011;50299;49.524;8.536;2022-10-29T00:37:40;16.73;;;7.82;;
64052;SDS011;50299;49.524;8.536;2022-10-29T00:40:07;11.40;;;6.95;;
64052;SDS011;50299;49.524;8.536;2022-10-29T00:42:34;10.63;;;6.43;;
64052;SDS011;50299;49.524;8.536;2022-10-29T00:45:00;17.73;;;7.20;;
64052;SDS011;50299;49.524;8.536;2022-10-29T00:47:28;14.77;;;6.63;;
64052;SDS011;50299;49.524;8.536;2022-10-29T00:50:02;15.00;;;6.55;;
64052;SDS011;50299;49.524;8.536;2022-10-29T00:52:32;11.88;;;6.30;;
64052;SDS011;50299;49.524;8.536;2022-10-29T00:55:02;12.52;;;6.00;;
64052;SDS011;50299;49.524;8.536;2022-10-29T00:57:36;10.98;;;6.13;;
64052;SDS011;50299;49.524;8.536;2022-10-29T01:00:07;27.15;;;7.10;;
64052;SDS011;50299;49.524;8.536;2022-10-29T01:02:34;19.73;;;6.57;;
64052;SDS011;50299;49.524;8.536;2022-10-29T01:05:03;14.68;;;6.63;;
64052;SDS011;50299;49.524;8.536;2022-10-29T01:09:59;13.07;;;6.18;;
64052;SDS011;50299;49.524;8.536;2022-10-29T01:18:22;12.73;;;6.25;;
64052;SDS011;50299;49.524;8.536;2022-10-29T01:21:14;12.40;;;6.47;;
64052;SDS011;50299;49.524;8.536;2022-10-29T01:32:30;15.27;;;6.13;;
64052;SDS011;50299;49.524;8.536;2022-10-29T01:37:47;16.05;;;6.30;;
64052;SDS011;50299;49.524;8.536;2022-10-29T01:40:32;11.13;;;6.18;;
64052;SDS011;50299;49.524;8.536;2022-10-29T01:43:19;13.15;;;6.57;;
64052;SDS011;50299;49.524;8.536;2022-10-29T01:45:58;11.45;;;5.82;;
64052;SDS011;50299;49.524;8.536;2022-10-29T01:48:47;12.48;;;6.03;;
64052;SDS011;50299;49.524;8.536;2022-10-29T01:51:18;12.20;;;6.80;;
64052;SDS011;50299;49.524;8.536;2022-10-29T01:53:47;10.32;;;6.32;;
64052;SDS011;50299;49.524;8.536;2022-10-29T01:56:15;13.65;;;6.22;;
64052;SDS011;50299;49.524;8.536;2022-10-29T01:58:43;12.35;;;6.63;;
64052;SDS011;50299;49.524;8.536;2022-10-29T02:07:00;13.13;;;5.78;;
64052;SDS011;50299;49.524;8.536;2022-10-29T02:09:52;9.73;;;6.20;;
64052;SDS011;50299;49.524;8.536;2022-10-29T02:15:08;10.57;;;5.82;;
64052;SDS011;50299;49.524;8.536;2022-10-29T02:17:39;13.63;;;6.00;;
64052;SDS011;50299;49.524;8.536;2022-10-29T02:20:07;8.95;;;6.40;;
64052;SDS011;50299;49.524;8.536;2022-10-29T02:22:36;17.45;;;6.82;;
64052;SDS011;50299;49.524;8.536;2022-10-29T02:25:03;14.15;;;6.55;;
64052;SDS011;50299;49.524;8.536;2022-10-29T02:27:30;12.73;;;6.20;;
64052;SDS011;50299;49.524;8.536;2022-10-29T02:29:57;14.50;;;6.80;;
64052;SDS011;50299;49.524;8.536;2022-10-29T02:32:23;16.08;;;6.88;;
64052;SDS011;50299;49.524;8.536;2022-10-29T02:34:49;9.48;;;6.53;;
64052;SDS011;50299;49.524;8.536;2022-10-29T02:37:16;10.25;;;6.00;;
64052;SDS011;50299;49.524;8.536;2022-10-29T02:39:42;20.30;;;7.63;;
64052;SDS011;50299;49.524;8.536;2022-10-29T02:42:09;13.95;;;6.90;;
64052;SDS011;50299;49.524;8.536;2022-10-29T02:44:35;15.55;;;6.82;;
64052;SDS011;50299;49.524;8.536;2022-10-29T02:47:02;16.02;;;6.85;;
64052;SDS011;50299;49.524;8.536;2022-10-29T02:49:28;13.45;;;6.25;;
64052;SDS011;50299;49.524;8.536;2022-10-29T02:51:54;15.70;;;6.25;;
64052;SDS011;50299;49.524;8.536;2022-10-29T02:54:21;9.93;;;6.00;;
64052;SDS011;50299;49.524;8.536;2022-10-29T02:56:47;11.93;;;6.45;;
64052;SDS011;50299;49.524;8.536;2022-10-29T02:59:14;15.18;;;6.65;;
64052;SDS011;50299;49.524;8.536;2022-10-29T03:01:40;15.15;;;7.13;;
64052;SDS011;50299;49.524;8.536;2022-10-29T03:04:06;14.38;;;7.53;;
64052;SDS011;50299;49.524;8.536;2022-10-29T03:06:33;14.13;;;7.28;;
64052;SDS011;50299;49.524;8.536;2022-10-29T03:08:59;15.38;;;6.90;;
64052;SDS011;50299;49.524;8.536;2022-10-29T03:11:25;10.98;;;6.07;;
64052;SDS011;50299;49.524;8.536;2022-10-29T03:13:52;12.48;;;6.82;;
64052;SDS011;50299;49.524;8.536;2022-10-29T03:16:18;11.43;;;6.68;;
64052;SDS011;50299;49.524;8.536;2022-10-29T03:18:45;13.00;;;6.00;;
64052;SDS011;50299;49.524;8.536;2022-10-29T03:21:11;13.85;;;6.43;;
64052;SDS011;50299;49.524;8.536;2022-10-29T03:23:37;15.38;;;6.90;;
64052;SDS011;50299;49.524;8.536;2022-10-29T03:26:04;12.73;;;6.32;;
64052;SDS011;50299;49.524;8.536;2022-10-29T03:28:30;11.70;;;6.45;;
64052;SDS011;50299;49.524;8.536;2022-10-29T03:30:57;11.50;;;6.32;;
64052;SDS011;50299;49.524;8.536;2022-10-29T03:33:24;12.25;;;6.70;;
64052;SDS011;50299;49.524;8.536;2022-10-29T03:36:00;14.77;;;7.32;;
64052;SDS011;50299;49.524;8.536;2022-10-29T03:38:28;9.52;;;6.28;;
64052;SDS011;50299;49.524;8.536;2022-10-29T03:40:55;14.20;;;6.20;;
64052;SDS011;50299;49.524;8.536;2022-10-29T03:43:22;10.40;;;6.63;;
64052;SDS011;50299;49.524;8.536;2022-10-29T03:45:49;14.90;;;6.47;;
64052;SDS011;50299;49.524;8.536;2022-10-29T03:48:17;10.90;;;6.55;;
64052;SDS011;50299;49.524;8.536;2022-10-29T03:50:43;11.30;;;7.25;;
64052;SDS011;50299;49.524;8.536;2022-10-29T03:53:10;9.50;;;6.70;;
64052;SDS011;50299;49.524;8.536;2022-10-29T03:55:36;11.32;;;6.95;;
64052;SDS011;50299;49.524;8.536;2022-10-29T03:58:03;11.52;;;6.85;;
64052;SDS011;50299;49.524;8.536;2022-10-29T04:00:29;12.70;;;7.45;;
64052;SDS011;50299;49.524;8.536;2022-10-29T04:02:55;9.93;;;6.32;;
64052;SDS011;50299;49.524;8.536;2022-10-29T04:05:22;10.57;;;6.75;;
64052;SDS011;50299;49.524;8.536;2022-10-29T04:07:49;11.27;;;6.97;;
64052;SDS011;50299;49.524;8.536;2022-10-29T04:10:15;20.25;;;6.45;;
64052;SDS011;50299;49.524;8.536;2022-10-29T04:12:45;19.25;;;6.28;;
64052;SDS011;50299;49.524;8.536;2022-10-29T04:15:11;16.98;;;7.20;;
64052;SDS011;50299;49.524;8.536;2022-10-29T04:17:38;16.92;;;6.30;;
64052;SDS011;50299;49.524;8.536;2022-10-29T04:20:04;45.08;;;8.23;;
64052;SDS011;50299;49.524;8.536;2022-10-29T04:22:51;32.90;;;7.32;;
64052;SDS011;50299;49.524;8.536;2022-10-29T04:25:37;12.93;;;5.97;;
64052;SDS011;50299;49.524;8.536;2022-10-29T04:28:23;10.90;;;5.80;;
64052;SDS011;50299;49.524;8.536;2022-10-29T04:31:10;14.40;;;6.00;;
64052;SDS011;50299;49.524;8.536;2022-10-29T04:33:39;22.63;;;6.50;;
64052;SDS011;50299;49.524;8.536;2022-10-29T04:36:06;13.63;;;6.35;;
64052;SDS011;50299;49.524;8.536;2022-10-29T04:38:33;12.82;;;5.75;;
64052;SDS011;50299;49.524;8.536;2022-10-29T04:41:00;15.95;;;6.68;;
64052;SDS011;50299;49.524;8.536;2022-10-29T04:43:27;16.02;;;6.53;;
64052;SDS011;50299;49.524;8.536;2022-10-29T04:45:54;12.50;;;6.60;;
64052;SDS011;50299;49.524;8.536;2022-10-29T04:48:25;14.50;;;6.60;;
64052;SDS011;50299;49.524;8.536;2022-10-29T04:50:53;21.60;;;6.75;;
64052;SDS011;50299;49.524;8.536;2022-10-29T04:53:20;31.05;;;7.38;;
64052;SDS011;50299;49.524;8.536;2022-10-29T04:55:46;11.13;;;5.78;;
64052;SDS011;50299;49.524;8.536;2022-10-29T04:58:14;16.33;;;6.97;;
64052;SDS011;50299;49.524;8.536;2022-10-29T05:00:42;11.98;;;6.18;;
64052;SDS011;50299;49.524;8.536;2022-10-29T05:03:10;9.75;;;5.80;;
64052;SDS011;50299;49.524;8.536;2022-10-29T05:05:37;16.35;;;5.97;;
64052;SDS011;50299;49.524;8.536;2022-10-29T05:08:05;12.48;;;5.70;;
64052;SDS011;50299;49.524;8.536;2022-10-29T05:10:33;19.05;;;7.15;;
64052;SDS011;50299;49.524;8.536;2022-10-29T05:13:02;12.05;;;6.00;;
64052;SDS011;50299;49.524;8.536;2022-10-29T05:15:30;10.82;;;6.18;;
64052;SDS011;50299;49.524;8.536;2022-10-29T05:17:58;10.82;;;6.32;;
64052;SDS011;50299;49.524;8.536;2022-10-29T05:20:25;14.13;;;6.45;;
64052;SDS011;50299;49.524;8.536;2022-10-29T05:23:03;13.13;;;5.63;;
64052;SDS011;50299;49.524;8.536;2022-10-29T05:25:32;9.88;;;5.35;;
64052;SDS011;50299;49.524;8.536;2022-10-29T05:28:00;8.13;;;5.53;;
64052;SDS011;50299;49.524;8.536;2022-10-29T05:30:38;11.18;;;6.72;;
64052;SDS011;50299;49.524;8.536;2022-10-29T05:33:07;10.65;;;6.35;;
64052;SDS011;50299;49.524;8.536;2022-10-29T05:35:34;12.57;;;6.47;;
64052;SDS011;50299;49.524;8.536;2022-10-29T05:38:03;14.38;;;5.90;;
64052;SDS011;50299;49.524;8.536;2022-10-29T05:40:30;20.23;;;7.07;;
64052;SDS011;50299;49.524;8.536;2022-10-29T05:42:56;35.17;;;7.57;;
64052;SDS011;50299;49.524;8.536;2022-10-29T05:45:24;11.77;;;6.32;;
64052;SDS011;50299;49.524;8.536;2022-10-29T05:47:56;21.67;;;6.70;;
64052;SDS011;50299;49.524;8.536;2022-10-29T05:50:24;13.80;;;6.38;;
64052;SDS011;50299;49.524;8.536;2022-10-29T05:52:55;8.32;;;5.45;;
64052;SDS011;50299;49.524;8.536;2022-10-29T05:55:23;11.38;;;5.88;;
64052;SDS011;50299;49.524;8.536;2022-10-29T05:57:57;17.80;;;6.70;;
64052;SDS011;50299;49.524;8.536;2022-10-29T06:00:25;9.75;;;5.75;;
64052;SDS011;50299;49.524;8.536;2022-10-29T06:02:53;15.00;;;6.05;;
64052;SDS011;50299;49.524;8.536;2022-10-29T06:05:21;13.88;;;5.97;;
64052;SDS011;50299;49.524;8.536;2022-10-29T06:07:54;18.52;;;6.97;;
64052;SDS011;50299;49.524;8.536;2022-10-29T06:10:22;11.88;;;5.80;;
64052;SDS011;50299;49.524;8.536;2022-10-29T06:12:49;13.60;;;5.80;;
64052;SDS011;50299;49.524;8.536;2022-10-29T06:15:16;13.55;;;6.05;;
64052;SDS011;50299;49.524;8.536;2022-10-29T06:17:43;13.20;;;5.82;;
64052;SDS011;50299;49.524;8.536;2022-10-29T06:20:11;11.73;;;6.28;;
64052;SDS011;50299;49.524;8.536;2022-10-29T06:22:38;12.20;;;6.22;;
64052;SDS011;50299;49.524;8.536;2022-10-29T06:25:05;10.68;;;6.57;;
64052;SDS011;50299;49.524;8.536;2022-10-29T06:27:32;14.57;;;6.82;;
64052;SDS011;50299;49.524;8.536;2022-10-29T06:29:58;11.80;;;7.07;;
64052;SDS011;50299;49.524;8.536;2022-10-29T06:32:25;11.50;;;6.78;;
64052;SDS011;50299;49.524;8.536;2022-10-29T06:34:51;18.50;;;6.50;;
64052;SDS011;50299;49.524;8.536;2022-10-29T06:37:17;15.18;;;6.30;;
64052;SDS011;50299;49.524;8.536;2022-10-29T06:39:44;15.85;;;7.03;;
64052;SDS011;50299;49.524;8.536;2022-10-29T06:42:10;13.52;;;6.70;;
64052;SDS011;50299;49.524;8.536;2022-10-29T06:44:36;14.35;;;6.65;;
64052;SDS011;50299;49.524;8.536;2022-10-29T06:47:03;11.00;;;6.38;;
64052;SDS011;50299;49.524;8.536;2022-10-29T06:49:30;14.25;;;6.85;;
64052;SDS011;50299;49.524;8.536;2022-10-29T06:51:56;16.02;;;7.22;;
64052;SDS011;50299;49.524;8.536;2022-10-29T06:54:22;16.23;;;7.30;;
64052;SDS011;50299;49.524;8.536;2022-10-29T06:56:49;14.80;;;7.03;;
64052;SDS011;50299;49.524;8.536;2022-10-29T06:59:15;15.88;;;7.20;;
64052;SDS011;50299;49.524;8.536;2022-10-29T07:01:41;9.50;;;5.95;;
64052;SDS011;50299;49.524;8.536;2022-10-29T07:04:08;29.38;;;8.52;;
64052;SDS011;50299;49.524;8.536;2022-10-29T07:06:34;39.88;;;10.30;;
64052;SDS011;50299;49.524;8.536;2022-10-29T07:09:01;36.65;;;9.63;;
64052;SDS011;50299;49.524;8.536;2022-10-29T07:11:27;66.40;;;13.40;;
64052;SDS011;50299;49.524;8.536;2022-10-29T07:13:54;35.15;;;10.00;;
64052;SDS011;50299;49.524;8.536;2022-10-29T07:16:21;23.35;;;9.05;;
64052;SDS011;50299;49.524;8.536;2022-10-29T07:18:47;26.10;;;8.00;;
64052;SDS011;50299;49.524;8.536;2022-10-29T07:21:13;34.25;;;8.85;;
64052;SDS011;50299;49.524;8.536;2022-10-29T07:23:40;131.45;;;23.25;;
64052;SDS011;50299;49.524;8.536;2022-10-29T07:26:06;128.43;;;21.42;;
64052;SDS011;50299;49.524;8.536;2022-10-29T07:28:33;175.75;;;28.20;;
64052;SDS011;50299;49.524;8.536;2022-10-29T07:31:00;126.15;;;21.52;;
64052;SDS011;50299;49.524;8.536;2022-10-29T07:33:27;47.78;;;11.43;;
64052;SDS011;50299;49.524;8.536;2022-10-29T07:35:56;42.20;;;10.43;;
64052;SDS011;50299;49.524;8.536;2022-10-29T07:38:23;39.95;;;10.70;;
64052;SDS011;50299;49.524;8.536;2022-10-29T07:40:54;45.08;;;10.82;;
64052;SDS011;50299;49.524;8.536;2022-10-29T07:43:20;74.45;;;12.85;;
64052;SDS011;50299;49.524;8.536;2022-10-29T07:45:48;155.07;;;27.63;;
64052;SDS011;50299;49.524;8.536;2022-10-29T07:48:16;66.53;;;14.60;;
64052;SDS011;50299;49.524;8.536;2022-10-29T07:50:47;55.35;;;11.63;;
64052;SDS011;50299;49.524;8.536;2022-10-29T07:53:13;49.00;;;12.05;;
64052;SDS011;50299;49.524;8.536;2022-10-29T07:55:42;59.03;;;11.55;;
64052;SDS011;50299;49.524;8.536;2022-10-29T07:58:12;55.45;;;12.00;;
64052;SDS011;50299;49.524;8.536;2022-10-29T08:00:41;40.75;;;9.60;;
64052;SDS011;50299;49.524;8.536;2022-10-29T08:03:11;56.97;;;11.73;;
64052;SDS011;50299;49.524;8.536;2022-10-29T08:05:38;23.42;;;8.10;;
64052;SDS011;50299;49.524;8.536;2022-10-29T08:08:22;12.07;;;7.90;;
64052;SDS011;50299;49.524;8.536;2022-10-29T08:10:48;12.15;;;7.47;;
64052;SDS011;50299;49.524;8.536;2022-10-29T08:13:15;15.38;;;7.05;;
64052;SDS011;50299;49.524;8.536;2022-10-29T08:15:44;16.67;;;7.40;;
64052;SDS011;50299;49.524;8.536;2022-10-29T08:18:15;20.88;;;7.75;;
64052;SDS011;50299;49.524;8.536;2022-10-29T08:20:42;12.25;;;7.07;;
64052;SDS011;50299;49.524;8.536;2022-10-29T08:23:09;12.55;;;6.78;;
64052;SDS011;50299;49.524;8.536;2022-10-29T08:25:38;12.73;;;7.47;;
64052;SDS011;50299;49.524;8.536;2022-10-29T08:28:09;14.15;;;8.25;;
64052;SDS011;50299;49.524;8.536;2022-10-29T08:30:37;13.27;;;7.30;;
64052;SDS011;50299;49.524;8.536;2022-10-29T08:35:34;14.57;;;8.07;;
64052;SDS011;50299;49.524;8.536;2022-10-29T08:38:00;13.48;;;7.07;;
64052;SDS011;50299;49.524;8.536;2022-10-29T08:45:46;11.18;;;7.63;;
64052;SDS011;50299;49.524;8.536;2022-10-29T08:48:18;16.23;;;7.30;;
64052;SDS011;50299;49.524;8.536;2022-10-29T08:50:48;12.27;;;6.93;;
64052;SDS011;50299;49.524;8.536;2022-10-29T08:53:23;17.40;;;8.20;;
64052;SDS011;50299;49.524;8.536;2022-10-29T08:56:02;11.30;;;7.28;;
64052;SDS011;50299;49.524;8.536;2022-10-29T08:58:34;13.35;;;7.80;;
64052;SDS011;50299;49.524;8.536;2022-10-29T09:01:08;11.70;;;6.32;;
64052;SDS011;50299;49.524;8.536;2022-10-29T09:03:45;12.77;;;7.15;;
64052;SDS011;50299;49.524;8.536;2022-10-29T09:06:13;11.52;;;6.82;;
64052;SDS011;50299;49.524;8.536;2022-10-29T09:08:49;10.32;;;6.07;;
64052;SDS011;50299;49.524;8.536;2022-10-29T09:20:42;13.60;;;7.28;;
64052;SDS011;50299;49.524;8.536;2022-10-29T09:23:23;14.10;;;6.65;;
64052;SDS011;50299;49.524;8.536;2022-10-29T09:26:15;11.70;;;6.28;;
64052;SDS011;50299;49.524;8.536;2022-10-29T09:31:33;13.40;;;6.47;;
64052;SDS011;50299;49.524;8.536;2022-10-29T09:34:10;14.40;;;6.68;;
64052;SDS011;50299;49.524;8.536;2022-10-29T09:36:44;9.95;;;6.70;;
64052;SDS011;50299;49.524;8.536;2022-10-29T09:39:13;12.88;;;6.90;;
64052;SDS011;50299;49.524;8.536;2022-10-29T09:42:00;12.45;;;6.82;;
64052;SDS011;50299;49.524;8.536;2022-10-29T09:44:38;13.63;;;7.38;;
64052;SDS011;50299;49.524;8.536;2022-10-29T09:47:18;16.38;;;6.85;;
64052;SDS011;50299;49.524;8.536;2022-10-29T09:50:11;10.93;;;6.85;;
64052;SDS011;50299;49.524;8.536;2022-10-29T09:52:43;14.85;;;7.05;;
64052;SDS011;50299;49.524;8.536;2022-10-29T09:57:48;14.98;;;6.80;;
64052;SDS011;50299;49.524;8.536;2022-10-29T10:00:20;10.98;;;6.65;;
64052;SDS011;50299;49.524;8.536;2022-10-29T10:05:24;14.77;;;6.35;;
64052;SDS011;50299;49.524;8.536;2022-10-29T10:10:28;9.52;;;5.78;;
64052;SDS011;50299;49.524;8.536;2022-10-29T10:13:00;13.65;;;5.82;;
64052;SDS011;50299;49.524;8.536;2022-10-29T10:15:32;9.65;;;5.43;;
64052;SDS011;50299;49.524;8.536;2022-10-29T10:21:00;12.30;;;5.80;;
64052;SDS011;50299;49.524;8.536;2022-10-29T10:23:37;11.48;;;5.40;;
64052;SDS011;50299;49.524;8.536;2022-10-29T10:29:19;9.88;;;5.43;;
64052;SDS011;50299;49.524;8.536;2022-10-29T10:32:08;9.48;;;5.43;;
64052;SDS011;50299;49.524;8.536;2022-10-29T10:34:38;9.57;;;5.40;;
64052;SDS011;50299;49.524;8.536;2022-10-29T10:39:35;9.80;;;5.57;;
64052;SDS011;50299;49.524;8.536;2022-10-29T10:42:21;13.98;;;6.05;;
64052;SDS011;50299;49.524;8.536;2022-10-29T10:45:14;11.75;;;5.20;;
64052;SDS011;50299;49.524;8.536;2022-10-29T10:47:44;10.35;;;5.53;;
64052;SDS011;50299;49.524;8.536;2022-10-29T10:52:57;8.23;;;5.65;;
64052;SDS011;50299;49.524;8.536;2022-10-29T10:55:33;10.38;;;5.53;;
64052;SDS011;50299;49.524;8.536;2022-10-29T10:58:07;11.88;;;4.93;;
64052;SDS011;50299;49.524;8.536;2022-10-29T11:00:43;18.52;;;7.18;;
64052;SDS011;50299;49.524;8.536;2022-10-29T11:03:15;11.68;;;5.07;;
64052;SDS011;50299;49.524;8.536;2022-10-29T11:05:48;10.73;;;5.30;;
64052;SDS011;50299;49.524;8.536;2022-10-29T11:08:24;8.82;;;5.45;;
64052;SDS011;50299;49.524;8.536;2022-10-29T11:10:59;11.00;;;5.13;;
64052;SDS011;50299;49.524;8.536;2022-10-29T11:13:32;10.93;;;5.22;;
64052;SDS011;50299;49.524;8.536;2022-10-29T11:24:54;10.55;;;5.30;;
64052;SDS011;50299;49.524;8.536;2022-10-29T11:27:40;13.82;;;5.60;;
64052;SDS011;50299;49.524;8.536;2022-10-29T11:30:16;12.60;;;5.60;;
64052;SDS011;50299;49.524;8.536;2022-10-29T11:33:00;12.32;;;5.72;;
64052;SDS011;50299;49.524;8.536;2022-10-29T11:35:49;10.95;;;5.00;;
64052;SDS011;50299;49.524;8.536;2022-10-29T11:38:27;15.63;;;5.47;;
64052;SDS011;50299;49.524;8.536;2022-10-29T11:43:45;10.25;;;4.85;;
64052;SDS011;50299;49.524;8.536;2022-10-29T11:46:31;14.15;;;4.88;;
64052;SDS011;50299;49.524;8.536;2022-10-29T11:49:26;10.75;;;4.80;;
64052;SDS011;50299;49.524;8.536;2022-10-29T11:54:41;10.10;;;5.13;;
64052;SDS011;50299;49.524;8.536;2022-10-29T12:11:39;9.05;;;5.03;;
64052;SDS011;50299;49.524;8.536;2022-10-29T12:14:13;9.15;;;4.90;;
64052;SDS011;50299;49.524;8.536;2022-10-29T12:16:59;11.35;;;5.00;;
64052;SDS011;50299;49.524;8.536;2022-10-29T12:22:30;11.38;;;5.28;;
64052;SDS011;50299;49.524;8.536;2022-10-29T12:28:03;12.63;;;5.60;;
64052;SDS011;50299;49.524;8.536;2022-10-29T12:33:27;11.40;;;4.65;;
64052;SDS011;50299;49.524;8.536;2022-10-29T12:38:41;11.05;;;4.53;;
64052;SDS011;50299;49.524;8.536;2022-10-29T12:41:13;14.43;;;4.03;;
64052;SDS011;50299;49.524;8.536;2022-10-29T12:43:44;27.85;;;7.13;;
64052;SDS011;50299;49.524;8.536;2022-10-29T12:49:01;9.60;;;3.80;;
64052;SDS011;50299;49.524;8.536;2022-10-29T12:51:47;10.88;;;4.07;;
64052;SDS011;50299;49.524;8.536;2022-10-29T12:57:04;11.07;;;4.22;;
64052;SDS011;50299;49.524;8.536;2022-10-29T12:59:44;8.85;;;3.75;;
64052;SDS011;50299;49.524;8.536;2022-10-29T13:07:32;9.15;;;4.45;;
64052;SDS011;50299;49.524;8.536;2022-10-29T13:20:50;22.42;;;6.13;;
64052;SDS011;50299;49.524;8.536;2022-10-29T13:23:39;16.58;;;4.38;;
64052;SDS011;50299;49.524;8.536;2022-10-29T13:26:05;10.90;;;4.38;;
64052;SDS011;50299;49.524;8.536;2022-10-29T13:44:13;26.00;;;6.43;;
64052;SDS011;50299;49.524;8.536;2022-10-29T13:46:45;14.70;;;4.85;;
64052;SDS011;50299;49.524;8.536;2022-10-29T13:54:38;14.68;;;4.22;;
64052;SDS011;50299;49.524;8.536;2022-10-29T13:57:13;16.58;;;4.72;;
64052;SDS011;50299;49.524;8.536;2022-10-29T14:05:20;18.77;;;5.50;;
64052;SDS011;50299;49.524;8.536;2022-10-29T14:08:00;8.15;;;4.03;;
64052;SDS011;50299;49.524;8.536;2022-10-29T14:18:43;10.32;;;4.53;;
64052;SDS011;50299;49.524;8.536;2022-10-29T14:21:12;13.52;;;5.15;;
64052;SDS011;50299;49.524;8.536;2022-10-29T14:23:53;9.85;;;4.45;;
64052;SDS011;50299;49.524;8.536;2022-10-29T14:26:30;8.82;;;4.03;;
64052;SDS011;50299;49.524;8.536;2022-10-29T14:29:21;9.35;;;4.18;;
64052;SDS011;50299;49.524;8.536;2022-10-29T14:34:34;12.07;;;4.60;;
64052;SDS011;50299;49.524;8.536;2022-10-29T14:37:02;8.57;;;4.40;;
64052;SDS011;50299;49.524;8.536;2022-10-29T14:42:26;10.77;;;4.30;;
64052;SDS011;50299;49.524;8.536;2022-10-29T14:44:59;9.07;;;4.20;;
64052;SDS011;50299;49.524;8.536;2022-10-29T14:47:32;10.02;;;4.75;;
64052;SDS011;50299;49.524;8.536;2022-10-29T14:50:01;8.13;;;4.03;;
64052;SDS011;50299;49.524;8.536;2022-10-29T14:52:37;8.52;;;4.47;;
64052;SDS011;50299;49.524;8.536;2022-10-29T14:55:07;13.90;;;4.40;;
64052;SDS011;50299;49.524;8.536;2022-10-29T14:57:40;7.78;;;3.90;;
64052;SDS011;50299;49.524;8.536;2022-10-29T15:00:26;8.48;;;4.60;;
64052;SDS011;50299;49.524;8.536;2022-10-29T15:02:55;9.25;;;4.93;;
64052;SDS011;50299;49.524;8.536;2022-10-29T15:10:31;9.93;;;4.47;;
64052;SDS011;50299;49.524;8.536;2022-10-29T15:12:57;15.68;;;4.75;;
64052;SDS011;50299;49.524;8.536;2022-10-29T15:15:39;18.77;;;4.97;;
64052;SDS011;50299;49.524;8.536;2022-10-29T15:18:22;11.05;;;4.68;;
64052;SDS011;50299;49.524;8.536;2022-10-29T15:20:51;11.35;;;4.72;;
64052;SDS011;50299;49.524;8.536;2022-10-29T15:23:35;10.73;;;4.90;;
64052;SDS011;50299;49.524;8.536;2022-10-29T15:26:12;14.52;;;5.55;;
64052;SDS011;50299;49.524;8.536;2022-10-29T15:28:44;12.93;;;4.85;;
64052;SDS011;50299;49.524;8.536;2022-10-29T15:31:21;11.05;;;4.28;;
64052;SDS011;50299;49.524;8.536;2022-10-29T15:33:54;13.18;;;5.45;;
64052;SDS011;50299;49.524;8.536;2022-10-29T15:36:25;13.52;;;5.07;;
64052;SDS011;50299;49.524;8.536;2022-10-29T15:39:08;14.95;;;5.57;;
64052;SDS011;50299;49.524;8.536;2022-10-29T15:41:47;16.30;;;6.30;;
64052;SDS011;50299;49.524;8.536;2022-10-29T15:44:25;14.27;;;5.40;;
64052;SDS011;50299;49.524;8.536;2022-10-29T15:46:53;11.52;;;5.00;;
64052;SDS011;50299;49.524;8.536;2022-10-29T15:49:24;19.08;;;7.85;;
64052;SDS011;50299;49.524;8.536;2022-10-29T15:51:57;19.25;;;9.43;;
64052;SDS011;50299;49.524;8.536;2022-10-29T15:54:26;15.57;;;7.18;;
64052;SDS011;50299;49.524;8.536;2022-10-29T15:56:53;16.77;;;7.70;;
64052;SDS011;50299;49.524;8.536;2022-10-29T15:59:21;13.73;;;6.90;;
64052;SDS011;50299;49.524;8.536;2022-10-29T16:01:49;12.65;;;5.50;;
64052;SDS011;50299;49.524;8.536;2022-10-29T16:04:16;14.65;;;5.57;;
64052;SDS011;50299;49.524;8.536;2022-10-29T16:06:42;14.20;;;5.30;;
64052;SDS011;50299;49.524;8.536;2022-10-29T16:09:10;16.88;;;5.28;;
64052;SDS011;50299;49.524;8.536;2022-10-29T16:11:42;15.90;;;5.13;;
64052;SDS011;50299;49.524;8.536;2022-10-29T16:14:09;9.85;;;4.80;;
64052;SDS011;50299;49.524;8.536;2022-10-29T16:16:35;14.10;;;5.68;;
64052;SDS011;50299;49.524;8.536;2022-10-29T16:19:02;19.50;;;5.40;;
64052;SDS011;50299;49.524;8.536;2022-10-29T16:21:31;19.63;;;6.38;;
64052;SDS011;50299;49.524;8.536;2022-10-29T16:23:58;16.70;;;5.40;;
64052;SDS011;50299;49.524;8.536;2022-10-29T16:26:24;13.60;;;5.32;;
64052;SDS011;50299;49.524;8.536;2022-10-29T16:28:51;8.88;;;4.40;;
64052;SDS011;50299;49.524;8.536;2022-10-29T16:31:25;12.80;;;4.78;;
64052;SDS011;50299;49.524;8.536;2022-10-29T16:33:53;10.07;;;4.82;;
64052;SDS011;50299;49.524;8.536;2022-10-29T16:36:23;16.02;;;5.00;;
64052;SDS011;50299;49.524;8.536;2022-10-29T16:38:49;11.68;;;4.47;;
64052;SDS011;50299;49.524;8.536;2022-10-29T16:41:16;17.70;;;6.13;;
64052;SDS011;50299;49.524;8.536;2022-10-29T16:43:44;12.45;;;5.40;;
64052;SDS011;50299;49.524;8.536;2022-10-29T16:46:11;10.50;;;5.60;;
64052;SDS011;50299;49.524;8.536;2022-10-29T16:48:39;15.10;;;6.15;;
64052;SDS011;50299;49.524;8.536;2022-10-29T16:51:05;12.30;;;5.10;;
64052;SDS011;50299;49.524;8.536;2022-10-29T16:53:32;9.23;;;5.05;;
64052;SDS011;50299;49.524;8.536;2022-10-29T16:55:59;10.13;;;5.13;;
64052;SDS011;50299;49.524;8.536;2022-10-29T16:58:26;12.73;;;5.47;;
64052;SDS011;50299;49.524;8.536;2022-10-29T17:01:03;14.40;;;6.28;;
64052;SDS011;50299;49.524;8.536;2022-10-29T17:03:31;8.98;;;5.30;;
64052;SDS011;50299;49.524;8.536;2022-10-29T17:06:03;10.63;;;5.70;;
64052;SDS011;50299;49.524;8.536;2022-10-29T17:08:32;15.98;;;5.75;;
64052;SDS011;50299;49.524;8.536;2022-10-29T17:11:00;14.90;;;5.45;;
64052;SDS011;50299;49.524;8.536;2022-10-29T17:13:27;12.35;;;5.90;;
64052;SDS011;50299;49.524;8.536;2022-10-29T17:15:54;10.90;;;5.43;;
64052;SDS011;50299;49.524;8.536;2022-10-29T17:18:20;12.23;;;4.88;;
64052;SDS011;50299;49.524;8.536;2022-10-29T17:20:58;12.25;;;5.50;;
64052;SDS011;50299;49.524;8.536;2022-10-29T17:23:26;14.65;;;6.18;;
64052;SDS011;50299;49.524;8.536;2022-10-29T17:25:54;12.23;;;5.97;;
64052;SDS011;50299;49.524;8.536;2022-10-29T17:28:23;13.07;;;6.30;;
64052;SDS011;50299;49.524;8.536;2022-10-29T17:30:50;18.40;;;6.65;;
64052;SDS011;50299;49.524;8.536;2022-10-29T17:33:17;24.90;;;5.78;;
64052;SDS011;50299;49.524;8.536;2022-10-29T17:35:44;15.10;;;6.15;;
64052;SDS011;50299;49.524;8.536;2022-10-29T17:38:11;11.85;;;6.03;;
64052;SDS011;50299;49.524;8.536;2022-10-29T17:40:37;10.48;;;5.43;;
64052;SDS011;50299;49.524;8.536;2022-10-29T17:43:04;11.30;;;5.60;;
64052;SDS011;50299;49.524;8.536;2022-10-29T17:45:30;19.15;;;5.70;;
64052;SDS011;50299;49.524;8.536;2022-10-29T17:47:57;18.30;;;6.57;;
64052;SDS011;50299;49.524;8.536;2022-10-29T17:50:24;13.40;;;5.63;;
64052;SDS011;50299;49.524;8.536;2022-10-29T17:52:51;10.75;;;5.90;;